Time;durP1;ratioP1;P1;durP2;ratioP2;P2;SDS_P1;SDS_P2;PMS_P1;PMS_P2;Temp;Humidity;BMP_temperature;BMP_pressure;BME280_temperature;BME280_humidity;BME280_pressure;Samples;Min_cycle;Max_cycle;Signal;HPM_P1;HPM_P2
2022/01/10 00:00:54;;;;;;;11.32;4.72;;;;;;;;;;4972488;28;20023;-84
2022/01/10 00:03:22;;;;;;;13.02;5.82;;;;;;;;;;4968543;28;20023;-83
2022/01/10 00:05:47;;;;;;;12.38;5.05;;;;;;;;;;4968535;29;20023;-84
2022/01/10 00:08:14;;;;;;;11.98;4.55;;;;;;;;;;4968343;29;20039;-84
2022/01/10 00:10:45;;;;;;;10.40;4.70;;;;;;;;;;4973736;29;20023;-84
2022/01/10 00:13:11;;;;;;;9.45;4.40;;;;;;;;;;4971573;28;20027;-84
2022/01/10 00:15:37;;;;;;;15.75;5.07;;;;;;;;;;4972404;29;20027;-86
2022/01/10 00:18:03;;;;;;;16.05;5.35;;;;;;;;;;4971840;29;20034;-86
2022/01/10 00:20:30;;;;;;;12.07;4.65;;;;;;;;;;4971390;29;20030;-86
2022/01/10 00:22:56;;;;;;;12.15;4.63;;;;;;;;;;4970618;28;20051;-82
2022/01/10 00:25:22;;;;;;;14.65;4.85;;;;;;;;;;4966016;29;20019;-85
2022/01/10 00:27:49;;;;;;;9.30;4.72;;;;;;;;;;4965441;29;20023;-82
2022/01/10 00:30:15;;;;;;;11.27;4.00;;;;;;;;;;4981170;28;20014;-82
2022/01/10 00:32:44;;;;;;;10.23;4.03;;;;;;;;;;4997170;28;20462;-83
2022/01/10 00:35:09;;;;;;;;;;;;;;;;;;4999334;28;20022;-81
2022/01/10 00:37:35;;;;;;;14.38;4.68;;;;;;;;;;4982045;28;19912;-84
2022/01/10 00:40:01;;;;;;;8.25;4.25;;;;;;;;;;5005264;28;20033;-84
2022/01/10 00:42:28;;;;;;;8.90;4.20;;;;;;;;;;4992736;28;20090;-84
2022/01/10 00:44:55;;;;;;;12.07;4.75;;;;;;;;;;5008549;28;20007;-85
2022/01/10 00:47:21;;;;;;;9.20;4.18;;;;;;;;;;5008333;28;20022;-84
2022/01/10 00:49:46;;;;;;;13.07;4.68;;;;;;;;;;4991164;28;20449;-85
2022/01/10 00:52:12;;;;;;;13.75;4.65;;;;;;;;;;4991459;28;20419;-85
2022/01/10 00:54:38;;;;;;;11.13;4.10;;;;;;;;;;5008216;28;20037;-84
2022/01/10 00:57:07;;;;;;;12.27;4.80;;;;;;;;;;5007841;28;20142;-84
2022/01/10 00:59:33;;;;;;;11.40;4.57;;;;;;;;;;5009661;28;20027;-84
2022/01/10 01:01:59;;;;;;;12.13;4.38;;;;;;;;;;5008741;28;20026;-83
2022/01/10 01:04:24;;;;;;;8.68;4.10;;;;;;;;;;5007973;28;20096;-83
2022/01/10 01:06:50;;;;;;;11.63;4.80;;;;;;;;;;4992124;28;20065;-83
2022/01/10 01:09:23;;;;;;;11.98;4.00;;;;;;;;;;5007222;28;20043;-83
2022/01/10 01:14:36;;;;;;;10.50;4.13;;;;;;;;;;4993367;28;20011;-85
2022/01/10 01:17:14;;;;;;;9.55;4.03;;;;;;;;;;5008643;28;20034;-84
2022/01/10 01:25:14;;;;;;;14.87;4.50;;;;;;;;;;4994447;28;20022;-85
2022/01/10 01:27:43;;;;;;;7.68;4.03;;;;;;;;;;5010381;28;20329;-84
2022/01/10 01:30:10;;;;;;;13.50;4.53;;;;;;;;;;5010014;28;20018;-84
2022/01/10 01:32:36;;;;;;;10.13;4.75;;;;;;;;;;5008681;28;20058;-84
2022/01/10 01:35:07;;;;;;;10.82;5.10;;;;;;;;;;4996112;28;20022;-86
2022/01/10 01:37:35;;;;;;;14.45;4.70;;;;;;;;;;5010984;28;20018;-84
2022/01/10 01:40:01;;;;;;;17.17;5.82;;;;;;;;;;5010240;28;20020;-85
2022/01/10 01:42:35;;;;;;;8.55;4.00;;;;;;;;;;5010236;28;20039;-84
2022/01/10 01:45:02;;;;;;;8.88;4.32;;;;;;;;;;5008679;28;20036;-84
2022/01/10 01:47:28;;;;;;;12.48;5.43;;;;;;;;;;5007274;28;20015;-83
2022/01/10 01:49:56;;;;;;;13.52;4.65;;;;;;;;;;5003344;28;20027;-83
2022/01/10 01:52:22;;;;;;;12.90;4.88;;;;;;;;;;5004744;28;20038;-83
2022/01/10 01:54:48;;;;;;;8.65;4.57;;;;;;;;;;5005524;28;20033;-84
2022/01/10 01:57:23;;;;;;;13.55;4.60;;;;;;;;;;5003082;28;20023;-83
2022/01/10 01:59:49;;;;;;;14.52;5.47;;;;;;;;;;5003476;28;20054;-84
2022/01/10 02:02:17;;;;;;;14.00;4.63;;;;;;;;;;5005158;28;20118;-83
2022/01/10 02:04:43;;;;;;;14.82;5.03;;;;;;;;;;5005652;28;20029;-83
2022/01/10 02:07:09;;;;;;;13.88;5.50;;;;;;;;;;5005279;28;20026;-83
2022/01/10 02:09:35;;;;;;;10.05;4.75;;;;;;;;;;5004542;28;20022;-84
2022/01/10 02:12:00;;;;;;;11.07;5.90;;;;;;;;;;5004413;28;20030;-83
2022/01/10 02:14:27;;;;;;;10.48;5.57;;;;;;;;;;5005229;28;20062;-84
2022/01/10 02:16:57;;;;;;;16.67;5.63;;;;;;;;;;5006089;28;20050;-83
2022/01/10 02:19:23;;;;;;;9.75;5.68;;;;;;;;;;5008215;28;20050;-83
2022/01/10 02:21:53;;;;;;;11.48;5.68;;;;;;;;;;5007386;28;20027;-84
2022/01/10 02:24:20;;;;;;;12.90;5.80;;;;;;;;;;5007302;28;20074;-83
2022/01/10 02:26:50;;;;;;;13.07;6.07;;;;;;;;;;5007054;28;20025;-84
2022/01/10 02:29:17;;;;;;;16.73;5.97;;;;;;;;;;5009778;28;20045;-83
2022/01/10 02:31:43;;;;;;;14.77;6.18;;;;;;;;;;5007899;28;20023;-83
2022/01/10 02:34:09;;;;;;;13.57;5.32;;;;;;;;;;5007214;28;20029;-83
2022/01/10 02:36:35;;;;;;;14.75;6.85;;;;;;;;;;5008203;28;20026;-83
2022/01/10 02:39:08;;;;;;;14.55;6.68;;;;;;;;;;5006945;28;20018;-84
2022/01/10 02:41:35;;;;;;;12.93;6.32;;;;;;;;;;5011799;28;20022;-83
2022/01/10 02:44:03;;;;;;;15.93;5.82;;;;;;;;;;5011646;28;20029;-86
2022/01/10 02:46:31;;;;;;;13.82;5.95;;;;;;;;;;5010781;28;20022;-84
2022/01/10 02:48:57;;;;;;;13.37;6.47;;;;;;;;;;5009510;28;20022;-83
2022/01/10 02:51:25;;;;;;;12.95;6.10;;;;;;;;;;5008030;28;20019;-83
2022/01/10 02:53:51;;;;;;;12.17;6.17;;;;;;;;;;5006018;28;20027;-84
2022/01/10 02:56:16;;;;;;;14.63;6.88;;;;;;;;;;5005097;28;20267;-83
2022/01/10 02:58:45;;;;;;;12.57;5.85;;;;;;;;;;5004851;28;20030;-83
2022/01/10 03:01:11;;;;;;;18.15;7.07;;;;;;;;;;4987999;28;20033;-82
2022/01/10 03:03:37;;;;;;;13.45;5.68;;;;;;;;;;5003925;28;20027;-83
2022/01/10 03:06:03;;;;;;;15.30;6.50;;;;;;;;;;5003492;28;20054;-84
2022/01/10 03:08:30;;;;;;;15.18;6.55;;;;;;;;;;5004089;28;20117;-83
2022/01/10 03:10:56;;;;;;;14.02;6.53;;;;;;;;;;5004089;28;20021;-84
2022/01/10 03:13:21;;;;;;;12.05;6.25;;;;;;;;;;5007286;28;20086;-84
2022/01/10 03:15:48;;;;;;;14.68;5.93;;;;;;;;;;5007921;28;20046;-84
2022/01/10 03:18:13;;;;;;;11.77;5.70;;;;;;;;;;4991220;28;20022;-84
2022/01/10 03:20:39;;;;;;;16.45;6.53;;;;;;;;;;5004605;28;20034;-84
2022/01/10 03:23:05;;;;;;;16.67;6.13;;;;;;;;;;5004801;28;20064;-83
2022/01/10 03:25:31;;;;;;;12.18;5.57;;;;;;;;;;5009771;28;20019;-83
2022/01/10 03:27:59;;;;;;;14.52;5.68;;;;;;;;;;4994040;28;20026;-84
2022/01/10 03:30:26;;;;;;;16.52;6.88;;;;;;;;;;4972284;28;20087;-83
2022/01/10 03:32:52;;;;;;;12.57;5.35;;;;;;;;;;4970865;28;20055;-83
2022/01/10 03:35:18;;;;;;;14.02;5.82;;;;;;;;;;4970878;29;20023;-83
2022/01/10 03:37:44;;;;;;;14.38;6.28;;;;;;;;;;4972735;29;20453;-83
2022/01/10 03:40:09;;;;;;;11.25;5.10;;;;;;;;;;4972579;29;20097;-83
2022/01/10 03:42:35;;;;;;;12.95;6.47;;;;;;;;;;4972260;28;20634;-84
2022/01/10 03:45:02;;;;;;;18.83;5.80;;;;;;;;;;4971224;28;20050;-83
2022/01/10 03:47:28;;;;;;;10.13;5.32;;;;;;;;;;4970421;29;20046;-82
2022/01/10 03:49:55;;;;;;;17.20;5.82;;;;;;;;;;4969627;29;20023;-83
2022/01/10 03:52:22;;;;;;;12.75;5.93;;;;;;;;;;4970599;29;20019;-83
2022/01/10 03:54:50;;;;;;;12.10;5.13;;;;;;;;;;4973853;28;20095;-84
2022/01/10 03:57:16;;;;;;;12.15;5.55;;;;;;;;;;4973047;29;20019;-85
2022/01/10 03:59:42;;;;;;;13.25;5.95;;;;;;;;;;4972333;29;20038;-82
2022/01/10 04:02:10;;;;;;;15.50;6.18;;;;;;;;;;4972278;29;20057;-82
2022/01/10 04:04:37;;;;;;;16.13;6.40;;;;;;;;;;4972674;28;20134;-83
2022/01/10 04:07:03;;;;;;;17.52;6.88;;;;;;;;;;4971216;29;20046;-83
2022/01/10 04:09:38;;;;;;;14.93;6.10;;;;;;;;;;4968236;29;20492;-83
2022/01/10 04:12:03;;;;;;;13.32;5.68;;;;;;;;;;4966711;29;20023;-82
2022/01/10 04:14:32;;;;;;;18.33;6.45;;;;;;;;;;4965979;28;20038;-82
2022/01/10 04:17:00;;;;;;;13.48;6.25;;;;;;;;;;4967518;29;20027;-82
2022/01/10 04:19:25;;;;;;;13.32;6.40;;;;;;;;;;4969720;29;20027;-83
2022/01/10 04:21:51;;;;;;;14.90;6.28;;;;;;;;;;4982486;28;20459;-84
2022/01/10 04:24:20;;;;;;;17.10;7.00;;;;;;;;;;4974330;28;20041;-86
2022/01/10 04:26:51;;;;;;;15.88;6.22;;;;;;;;;;4977124;28;20050;-85
2022/01/10 04:29:17;;;;;;;13.35;6.40;;;;;;;;;;4977013;29;20019;-86
2022/01/10 04:31:44;;;;;;;13.07;7.45;;;;;;;;;;4979698;29;20117;-84
2022/01/10 04:34:13;;;;;;;17.15;6.55;;;;;;;;;;4976707;28;20023;-83
2022/01/10 04:36:38;;;;;;;15.43;6.63;;;;;;;;;;4970967;29;20106;-83
2022/01/10 04:39:04;;;;;;;12.07;6.03;;;;;;;;;;4972790;29;20035;-83
2022/01/10 04:41:29;;;;;;;20.17;7.88;;;;;;;;;;4968852;29;20468;-82
2022/01/10 04:43:55;;;;;;;16.98;7.05;;;;;;;;;;4970805;28;20034;-86
2022/01/10 04:46:22;;;;;;;16.67;6.35;;;;;;;;;;4975652;29;20054;-84
2022/01/10 04:48:47;;;;;;;16.15;6.57;;;;;;;;;;4975724;29;20010;-85
2022/01/10 04:51:17;;;;;;;18.10;7.13;;;;;;;;;;4973996;29;20050;-83
2022/01/10 04:53:44;;;;;;;17.65;6.45;;;;;;;;;;4973336;28;20054;-83
2022/01/10 04:56:11;;;;;;;14.10;5.45;;;;;;;;;;4975230;29;20020;-84
2022/01/10 04:58:40;;;;;;;13.80;5.60;;;;;;;;;;4980792;28;20018;-85
2022/01/10 05:01:09;;;;;;;14.30;5.72;;;;;;;;;;4971930;28;20003;-84
2022/01/10 05:03:35;;;;;;;17.77;6.60;;;;;;;;;;4979779;28;20011;-85
2022/01/10 05:06:04;;;;;;;17.80;6.47;;;;;;;;;;4978521;29;20023;-86
2022/01/10 05:08:33;;;;;;;11.82;6.32;;;;;;;;;;4979579;29;20003;-85
2022/01/10 05:10:58;;;;;;;;;;;;;;;;;;4979656;29;20075;-86
2022/01/10 05:13:24;;;;;;;12.50;5.15;;;;;;;;;;4977858;28;19911;-86
2022/01/10 05:15:51;;;;;;;13.80;6.63;;;;;;;;;;4978327;28;20497;-86
2022/01/10 05:18:18;;;;;;;15.38;5.80;;;;;;;;;;4978311;29;20027;-85
2022/01/10 05:20:43;;;;;;;14.48;6.00;;;;;;;;;;4976700;29;20034;-85
2022/01/10 05:23:11;;;;;;;14.77;6.32;;;;;;;;;;4977135;28;20031;-85
2022/01/10 05:25:40;;;;;;;15.77;6.28;;;;;;;;;;4978384;29;20109;-85
2022/01/10 05:28:06;;;;;;;12.63;6.65;;;;;;;;;;4974010;29;20035;-83
2022/01/10 05:30:32;;;;;;;14.05;5.95;;;;;;;;;;5086187;23;20038;-84
2022/01/10 05:33:04;;;;;;;15.75;6.20;;;;;;;;;;5038587;23;20043;-85
2022/01/10 05:35:33;;;;;;;15.93;6.38;;;;;;;;;;5286567;23;20031;-87
2022/01/10 05:53:36;;;;;;;15.60;6.40;;;;;;;;;;3353409;23;21940;-86
2022/01/10 05:56:02;;;;;;;13.15;5.85;;;;;;;;;;4994712;23;20070;-84
2022/01/10 05:58:28;;;;;;;14.23;6.10;;;;;;;;;;4996829;23;20035;-86
2022/01/10 06:00:55;;;;;;;15.93;7.63;;;;;;;;;;5144138;23;20047;-85
2022/01/10 06:13:34;;;;;;;17.40;7.00;;;;;;;;;;2747431;23;20144;-86
2022/01/10 06:16:06;;;;;;;13.93;6.25;;;;;;;;;;5104418;23;20035;-86
2022/01/10 06:31:31;;;;;;;16.50;6.57;;;;;;;;;;5302160;23;20051;-87
2022/01/10 06:33:58;;;;;;;13.70;6.38;;;;;;;;;;5182036;23;20079;-85
2022/01/10 06:36:29;;;;;;;14.20;6.68;;;;;;;;;;5731049;23;20054;-86
2022/01/10 06:49:18;;;;;;;16.63;6.03;;;;;;;;;;5110020;23;20047;-86
2022/01/10 07:18:24;;;;;;;14.05;7.65;;;;;;;;;;4663215;23;20034;-85
2022/01/10 07:20:59;;;;;;;19.70;6.53;;;;;;;;;;5567413;23;20026;-86
2022/01/10 07:23:27;;;;;;;17.65;5.60;;;;;;;;;;5682443;23;20785;-87
2022/01/10 07:25:59;;;;;;;13.05;6.10;;;;;;;;;;5000723;23;20040;-88
2022/01/10 07:36:16;;;;;;;16.17;6.13;;;;;;;;;;5181949;23;20195;-88
2022/01/10 07:41:14;;;;;;;16.17;5.80;;;;;;;;;;5395364;23;20038;-86
2022/01/10 08:04:13;;;;;;;12.50;6.00;;;;;;;;;;5289822;23;20030;-87
2022/01/10 08:06:44;;;;;;;18.40;7.80;;;;;;;;;;5028006;23;20064;-88
2022/01/10 08:14:23;;;;;;;17.02;6.63;;;;;;;;;;5254351;23;20026;-90
2022/01/10 08:22:04;;;;;;;12.90;6.70;;;;;;;;;;5527993;23;20047;-87
2022/01/10 08:32:16;;;;;;;16.63;7.15;;;;;;;;;;2568842;23;20242;-86
2022/01/10 08:34:41;;;;;;;12.38;6.25;;;;;;;;;;5117436;23;20029;-86
2022/01/10 08:37:12;;;;;;;19.27;6.80;;;;;;;;;;4926652;29;20036;-85
2022/01/10 08:39:39;;;;;;;16.58;6.43;;;;;;;;;;4942502;29;20028;-83
2022/01/10 08:42:07;;;;;;;15.02;6.45;;;;;;;;;;4942130;29;20028;-86
2022/01/10 08:44:33;;;;;;;25.95;7.35;;;;;;;;;;4927353;29;20036;-84
2022/01/10 08:46:59;;;;;;;18.83;6.65;;;;;;;;;;4926799;29;20116;-88
2022/01/10 08:49:25;;;;;;;12.38;5.55;;;;;;;;;;4926372;29;20040;-83
2022/01/10 08:51:57;;;;;;;17.38;7.28;;;;;;;;;;4943322;29;20034;-87
2022/01/10 08:54:23;;;;;;;14.70;6.35;;;;;;;;;;4926874;29;20024;-88
2022/01/10 08:56:58;;;;;;;18.15;6.28;;;;;;;;;;4926217;29;20040;-86
2022/01/10 09:01:55;;;;;;;19.45;6.15;;;;;;;;;;4938186;29;20047;-90
2022/01/10 09:04:20;;;;;;;18.33;7.30;;;;;;;;;;4940296;29;20028;-86
2022/01/10 09:06:48;;;;;;;18.58;6.60;;;;;;;;;;4939010;29;20030;-83
2022/01/10 09:09:14;;;;;;;17.55;6.88;;;;;;;;;;4940443;29;20008;-86
2022/01/10 09:11:40;;;;;;;21.25;6.78;;;;;;;;;;4942340;29;20036;-83
2022/01/10 09:14:06;;;;;;;16.92;6.85;;;;;;;;;;4940470;29;20037;-88
2022/01/10 09:16:35;;;;;;;19.08;6.75;;;;;;;;;;4940556;29;20043;-86
2022/01/10 09:19:01;;;;;;;14.63;5.72;;;;;;;;;;4941124;29;20036;-86
2022/01/10 09:21:27;;;;;;;20.45;6.82;;;;;;;;;;4940343;29;20027;-83
2022/01/10 09:23:53;;;;;;;18.05;6.63;;;;;;;;;;4940960;29;20000;-89
2022/01/10 09:26:28;;;;;;;15.27;6.82;;;;;;;;;;4941187;29;20104;-91
2022/01/10 09:28:53;;;;;;;16.50;6.68;;;;;;;;;;4939655;29;20469;-86
2022/01/10 09:31:22;;;;;;;17.30;6.65;;;;;;;;;;4939308;29;20027;-91
2022/01/10 09:33:52;;;;;;;20.90;6.90;;;;;;;;;;4939053;29;20032;-90
2022/01/10 09:36:19;;;;;;;21.27;6.70;;;;;;;;;;4941151;29;20024;-94
2022/01/10 09:38:44;;;;;;;18.92;7.25;;;;;;;;;;4938773;29;20020;-79
2022/01/10 09:41:10;;;;;;;18.10;7.47;;;;;;;;;;4931747;29;20083;-85
2022/01/10 09:43:39;;;;;;;14.05;6.20;;;;;;;;;;4940566;29;20091;-91
2022/01/10 09:46:08;;;;;;;22.08;7.97;;;;;;;;;;4941879;29;20032;-86
2022/01/10 09:48:34;;;;;;;15.27;6.95;;;;;;;;;;4941819;29;20013;-87
2022/01/10 09:51:01;;;;;;;19.73;7.75;;;;;;;;;;4940523;29;20362;-88
2022/01/10 09:53:30;;;;;;;15.98;6.95;;;;;;;;;;4941555;29;20012;-90
2022/01/10 09:55:58;;;;;;;18.73;7.43;;;;;;;;;;4940380;29;20024;-86
2022/01/10 09:58:28;;;;;;;18.88;7.43;;;;;;;;;;4936675;29;20009;-84
2022/01/10 10:00:55;;;;;;;19.85;8.13;;;;;;;;;;4937511;29;20043;-88
2022/01/10 10:03:21;;;;;;;18.52;8.18;;;;;;;;;;4936455;29;20012;-88
2022/01/10 10:05:46;;;;;;;24.98;7.82;;;;;;;;;;4937458;29;20000;-86
2022/01/10 10:08:11;;;;;;;19.33;7.20;;;;;;;;;;4933559;29;20042;-88
2022/01/10 10:10:39;;;;;;;22.40;7.07;;;;;;;;;;4923841;29;20036;-89
2022/01/10 10:13:10;;;;;;;20.40;6.90;;;;;;;;;;4939742;29;20004;-90
2022/01/10 10:15:36;;;;;;;27.90;7.40;;;;;;;;;;4940476;29;20020;-89
2022/01/10 10:18:08;;;;;;;20.15;7.10;;;;;;;;;;4939118;29;20481;-91
2022/01/10 10:20:34;;;;;;;18.52;7.47;;;;;;;;;;4933506;29;20500;-90
2022/01/10 10:22:59;;;;;;;20.70;6.93;;;;;;;;;;4937029;29;20052;-91
2022/01/10 10:25:24;;;;;;;18.38;7.43;;;;;;;;;;4940264;29;20018;-86
2022/01/10 10:27:50;;;;;;;20.33;6.95;;;;;;;;;;4939755;29;20032;-90
2022/01/10 10:30:20;;;;;;;16.35;7.18;;;;;;;;;;4940987;29;20016;-88
2022/01/10 10:32:46;;;;;;;18.20;6.68;;;;;;;;;;4940413;29;20080;-87
2022/01/10 10:35:12;;;;;;;19.25;7.63;;;;;;;;;;4940042;29;20032;-90
2022/01/10 10:37:38;;;;;;;16.77;7.30;;;;;;;;;;4941106;29;20093;-89
2022/01/10 10:40:09;;;;;;;23.65;8.07;;;;;;;;;;4940323;29;20004;-85
2022/01/10 10:42:39;;;;;;;22.20;9.25;;;;;;;;;;4939003;29;20048;-89
2022/01/10 10:45:06;;;;;;;18.35;8.30;;;;;;;;;;4939627;29;20031;-88
2022/01/10 10:47:34;;;;;;;27.48;8.38;;;;;;;;;;4940191;29;20044;-88
2022/01/10 10:50:05;;;;;;;24.88;9.25;;;;;;;;;;4936144;29;20029;-85
2022/01/10 10:52:32;;;;;;;24.90;9.00;;;;;;;;;;4920767;29;20009;-90
2022/01/10 10:55:13;;;;;;;21.73;9.25;;;;;;;;;;4920071;29;20037;-90
2022/01/10 10:57:38;;;;;;;25.52;10.30;;;;;;;;;;4935627;29;20048;-89
2022/01/10 11:00:12;;;;;;;27.40;10.77;;;;;;;;;;4940283;29;20075;-93
2022/01/10 11:02:42;;;;;;;24.90;10.38;;;;;;;;;;5009970;23;20031;-90
2022/01/10 11:05:08;;;;;;;25.50;10.48;;;;;;;;;;4958091;28;20060;-94
2022/01/10 11:07:38;;;;;;;27.65;12.27;;;;;;;;;;4944839;28;20017;-93
2022/01/10 11:17:51;;;;;;;26.48;10.88;;;;;;;;;;5362629;23;20060;-95
2022/01/10 11:23:01;;;;;;;28.17;10.88;;;;;;;;;;5297551;23;20064;-94
2022/01/10 11:25:26;;;;;;;21.48;10.63;;;;;;;;;;5433237;23;20044;-95
2022/01/10 11:27:53;;;;;;;21.17;10.93;;;;;;;;;;4920845;29;20052;-93
2022/01/10 11:30:26;;;;;;;24.80;10.70;;;;;;;;;;4920478;29;20044;-96
2022/01/10 11:33:07;;;;;;;24.05;10.50;;;;;;;;;;5072712;23;20025;-90
2022/01/10 11:35:36;;;;;;;21.15;10.85;;;;;;;;;;5042720;23;20065;-87
2022/01/10 11:38:16;;;;;;;27.42;10.85;;;;;;;;;;4983007;23;20033;-85
2022/01/10 11:48:44;;;;;;;26.55;11.25;;;;;;;;;;5128943;23;20056;-86
2022/01/10 11:51:14;;;;;;;29.17;11.45;;;;;;;;;;5036254;23;20102;-86
2022/01/10 11:53:42;;;;;;;30.80;11.38;;;;;;;;;;5043525;23;20055;-86
2022/01/10 11:56:19;;;;;;;24.25;11.32;;;;;;;;;;4978362;23;20076;-85
2022/01/10 11:59:07;;;;;;;25.52;9.85;;;;;;;;;;4947046;28;20067;-84
2022/01/10 12:01:41;;;;;;;28.88;11.23;;;;;;;;;;4993496;23;20035;-82
2022/01/10 12:04:07;;;;;;;25.50;11.35;;;;;;;;;;5169257;23;20035;-84
2022/01/10 12:06:32;;;;;;;28.63;12.02;;;;;;;;;;4946624;29;20008;-86
2022/01/10 12:08:58;;;;;;;24.10;10.57;;;;;;;;;;4997006;23;20050;-84
2022/01/10 12:11:28;;;;;;;24.23;9.77;;;;;;;;;;5082783;23;20078;-84
2022/01/10 12:13:55;;;;;;;21.23;10.43;;;;;;;;;;5058171;23;21051;-85
2022/01/10 12:16:34;;;;;;;;;;;;;;;;;;;;;
2022/01/10 12:19:04;;;;;;;20.52;9.45;;;;;;;;;;5001719;28;20034;-85
2022/01/10 12:21:30;;;;;;;24.08;10.55;;;;;;;;;;5169712;23;20101;-85
2022/01/10 12:23:59;;;;;;;31.77;11.45;;;;;;;;;;4978341;23;1781699;-85
2022/01/10 12:26:30;;;;;;;24.88;11.15;;;;;;;;;;5001812;28;20319;-85
2022/01/10 12:28:58;;;;;;;24.98;10.80;;;;;;;;;;4985237;28;20035;-84
2022/01/10 12:31:30;;;;;;;25.90;11.40;;;;;;;;;;5000965;28;20015;-85
2022/01/10 12:33:57;;;;;;;25.88;11.52;;;;;;;;;;4967773;28;20024;-85
2022/01/10 12:36:23;;;;;;;26.60;11.63;;;;;;;;;;4964789;28;20007;-85
2022/01/10 12:38:58;;;;;;;23.52;10.68;;;;;;;;;;4982146;28;20046;-86
2022/01/10 12:41:25;;;;;;;33.75;12.35;;;;;;;;;;4965077;28;20011;-84
2022/01/10 12:43:50;;;;;;;28.83;11.35;;;;;;;;;;4981489;28;20027;-85
2022/01/10 12:46:17;;;;;;;26.35;10.60;;;;;;;;;;4981577;28;20034;-84
2022/01/10 12:48:51;;;;;;;31.10;11.88;;;;;;;;;;4981453;28;20031;-85
2022/01/10 12:51:21;;;;;;;30.63;12.32;;;;;;;;;;4965215;28;20101;-84
2022/01/10 12:53:48;;;;;;;27.77;11.10;;;;;;;;;;4964885;28;20015;-85
2022/01/10 12:56:22;;;;;;;28.15;11.45;;;;;;;;;;4981428;28;20019;-85
2022/01/10 12:58:51;;;;;;;24.25;11.23;;;;;;;;;;5007246;23;20042;-86
2022/01/10 13:01:17;;;;;;;19.80;9.75;;;;;;;;;;4983760;28;20013;-86
2022/01/10 13:03:57;;;;;;;25.60;10.10;;;;;;;;;;5077956;23;20038;-85
2022/01/10 13:06:35;;;;;;;21.85;9.63;;;;;;;;;;5000602;28;20022;-84
2022/01/10 13:09:02;;;;;;;20.30;9.57;;;;;;;;;;4983699;28;20011;-84
2022/01/10 13:11:41;;;;;;;;;;;;;;;;;;;;;
2022/01/10 13:14:13;;;;;;;21.42;9.07;;;;;;;;;;4982631;28;20003;-84
2022/01/10 13:16:58;;;;;;;18.65;8.88;;;;;;;;;;4964485;28;20031;-86
2022/01/10 13:19:31;;;;;;;19.27;9.00;;;;;;;;;;4964099;28;20026;-83
2022/01/10 13:22:02;;;;;;;19.55;9.15;;;;;;;;;;4962080;28;20043;-84
2022/01/10 13:24:28;;;;;;;23.17;10.18;;;;;;;;;;4963235;28;20046;-85
2022/01/10 13:27:00;;;;;;;16.95;9.18;;;;;;;;;;4963634;28;20031;-85
2022/01/10 13:29:39;;;;;;;27.17;12.15;;;;;;;;;;4963715;28;20020;-85
2022/01/10 13:32:16;;;;;;;25.85;9.95;;;;;;;;;;4964184;28;20039;-85
2022/01/10 13:34:47;;;;;;;22.63;8.85;;;;;;;;;;4964477;28;20027;-85
2022/01/10 13:37:22;;;;;;;20.90;9.23;;;;;;;;;;4964288;28;20004;-85
2022/01/10 13:40:01;;;;;;;19.23;9.63;;;;;;;;;;5004773;23;20042;-85
2022/01/10 13:42:27;;;;;;;23.00;8.27;;;;;;;;;;5047153;23;20026;-84
2022/01/10 13:45:01;;;;;;;21.65;9.63;;;;;;;;;;5105811;23;20142;-86
2022/01/10 13:47:27;;;;;;;23.20;10.82;;;;;;;;;;5008075;23;20031;-85
2022/01/10 13:49:53;;;;;;;24.58;10.85;;;;;;;;;;5026434;23;20035;-87
2022/01/10 13:52:20;;;;;;;19.65;10.15;;;;;;;;;;4979170;28;20067;-86
2022/01/10 13:54:49;;;;;;;24.13;10.20;;;;;;;;;;4963547;28;20008;-84
2022/01/10 13:57:14;;;;;;;;;;;;;;;;;;5088407;23;20055;-82
2022/01/10 13:59:45;;;;;;;21.20;10.50;;;;;;;;;;4980999;28;19930;-84
2022/01/10 14:02:12;;;;;;;29.75;12.00;;;;;;;;;;5025649;23;20034;-84
2022/01/10 14:07:14;;;;;;;26.90;11.57;;;;;;;;;;4995773;28;20031;-85
2022/01/10 14:19:59;;;;;;;24.95;10.98;;;;;;;;;;5199784;23;20043;-86
2022/01/10 14:22:37;;;;;;;19.95;10.52;;;;;;;;;;5015646;23;20035;-86
2022/01/10 14:25:04;;;;;;;25.27;11.40;;;;;;;;;;5307622;23;20182;-87
2022/01/10 14:27:30;;;;;;;26.13;11.20;;;;;;;;;;4944150;28;20008;-86
2022/01/10 14:29:57;;;;;;;23.65;11.38;;;;;;;;;;4943677;29;20034;-84
2022/01/10 14:32:29;;;;;;;25.45;11.48;;;;;;;;;;4989222;23;20047;-84
2022/01/10 14:35:04;;;;;;;23.38;11.27;;;;;;;;;;5274208;23;20052;-86
2022/01/10 14:37:33;;;;;;;23.33;12.55;;;;;;;;;;4985745;23;20035;-85
2022/01/10 14:40:08;;;;;;;23.65;12.13;;;;;;;;;;4964594;23;20055;-85
2022/01/10 14:42:45;;;;;;;23.30;11.95;;;;;;;;;;4943501;28;20047;-86
2022/01/10 14:47:44;;;;;;;22.80;11.88;;;;;;;;;;4956051;23;19914;-85
2022/01/10 14:50:23;;;;;;;29.05;12.30;;;;;;;;;;5050110;23;20104;-85
2022/01/10 14:52:54;;;;;;;31.20;12.88;;;;;;;;;;4944160;28;20018;-84
2022/01/10 14:57:59;;;;;;;30.00;12.63;;;;;;;;;;5035735;23;20040;-84
2022/01/10 15:00:28;;;;;;;23.10;11.07;;;;;;;;;;4957403;23;20060;-86
2022/01/10 15:03:03;;;;;;;24.58;11.73;;;;;;;;;;4943469;28;20051;-86
2022/01/10 15:05:48;;;;;;;29.00;12.68;;;;;;;;;;4943535;28;20056;-86
2022/01/10 15:10:57;;;;;;;22.58;11.50;;;;;;;;;;4958412;28;20091;-87
2022/01/10 15:13:23;;;;;;;27.98;12.27;;;;;;;;;;4064985;23;20312;-87
2022/01/10 15:15:58;;;;;;;33.22;12.55;;;;;;;;;;5030701;23;20055;-86
2022/01/10 15:18:27;;;;;;;25.55;11.95;;;;;;;;;;5014381;23;20039;-87
2022/01/10 15:23:52;;;;;;;;;;;;;;;;;;;;;
2022/01/10 15:26:37;;;;;;;25.50;10.75;;;;;;;;;;5132678;23;20031;-86
2022/01/10 15:29:14;;;;;;;24.80;10.50;;;;;;;;;;5087896;23;20203;-86
2022/01/10 15:32:21;;;;;;;27.17;10.05;;;;;;;;;;5131309;23;20055;-86
2022/01/10 15:40:06;;;;;;;26.13;9.87;;;;;;;;;;4961433;29;20064;-86
2022/01/10 15:45:21;;;;;;;;;;;;;;;;;;;;;
2022/01/10 15:47:48;;;;;;;23.10;10.18;;;;;;;;;;5106604;23;20075;-86
2022/01/10 15:55:17;;;;;;;19.05;9.43;;;;;;;;;;5086593;23;20306;-84
2022/01/10 15:57:47;;;;;;;19.65;9.15;;;;;;;;;;5004339;23;20068;-85
2022/01/10 16:00:19;;;;;;;22.45;9.93;;;;;;;;;;4985101;28;20023;-84
2022/01/10 16:02:49;;;;;;;19.70;9.13;;;;;;;;;;4988755;28;20132;-84
2022/01/10 16:05:18;;;;;;;;;;;;;;;;;;4965516;28;20021;-84
2022/01/10 16:07:45;;;;;;;22.33;9.32;;;;;;;;;;5082065;23;19950;-85
2022/01/10 16:10:18;;;;;;;23.80;10.32;;;;;;;;;;4962056;28;20036;-85
2022/01/10 16:12:47;;;;;;;20.98;9.88;;;;;;;;;;4993523;23;20043;-85
2022/01/10 16:15:23;;;;;;;21.98;9.95;;;;;;;;;;4996415;23;20054;-84
2022/01/10 16:17:54;;;;;;;29.15;10.85;;;;;;;;;;4980580;28;20073;-85
2022/01/10 16:20:23;;;;;;;25.13;11.48;;;;;;;;;;4980615;28;20011;-84
2022/01/10 16:22:50;;;;;;;30.17;11.25;;;;;;;;;;5006387;23;20026;-85
2022/01/10 16:25:17;;;;;;;28.88;11.40;;;;;;;;;;4952973;28;20058;-84
2022/01/10 16:27:44;;;;;;;29.88;11.50;;;;;;;;;;4946122;29;20008;-84
2022/01/10 16:30:19;;;;;;;32.08;12.65;;;;;;;;;;4961148;29;20032;-86
2022/01/10 16:32:45;;;;;;;30.92;11.95;;;;;;;;;;4962161;29;20011;-84
2022/01/10 16:35:11;;;;;;;26.60;10.25;;;;;;;;;;5003432;23;20027;-85
2022/01/10 16:37:37;;;;;;;29.33;11.50;;;;;;;;;;4969410;28;20028;-84
2022/01/10 16:40:05;;;;;;;28.98;12.52;;;;;;;;;;4964068;28;20104;-84
2022/01/10 16:42:38;;;;;;;29.15;11.68;;;;;;;;;;4964789;28;20050;-85
2022/01/10 16:45:05;;;;;;;29.70;14.65;;;;;;;;;;4964784;28;20012;-84
2022/01/10 16:47:33;;;;;;;28.20;11.13;;;;;;;;;;5029283;23;20078;-86
2022/01/10 16:50:07;;;;;;;27.63;10.13;;;;;;;;;;4980928;28;20011;-85
2022/01/10 16:52:42;;;;;;;22.33;10.63;;;;;;;;;;4959096;29;20083;-86
2022/01/10 16:55:16;;;;;;;28.13;10.98;;;;;;;;;;4945665;29;20059;-85
2022/01/10 16:57:47;;;;;;;29.17;11.52;;;;;;;;;;4961984;29;20035;-84
2022/01/10 17:00:21;;;;;;;26.95;10.90;;;;;;;;;;4961906;29;20015;-84
2022/01/10 17:03:08;;;;;;;35.28;11.32;;;;;;;;;;5003734;23;20055;-86
2022/01/10 17:05:36;;;;;;;28.60;10.95;;;;;;;;;;4964298;28;20023;-85
2022/01/10 17:08:20;;;;;;;25.23;10.75;;;;;;;;;;4964125;28;20031;-85
2022/01/10 17:10:56;;;;;;;36.28;11.95;;;;;;;;;;4964434;28;20007;-85
2022/01/10 17:13:35;;;;;;;25.00;11.23;;;;;;;;;;5074964;23;20050;-85
2022/01/10 17:16:03;;;;;;;25.13;10.95;;;;;;;;;;5062358;23;20040;-85
2022/01/10 17:18:38;;;;;;;23.48;10.27;;;;;;;;;;5158521;23;20035;-84
2022/01/10 17:21:10;;;;;;;25.48;11.68;;;;;;;;;;5097412;23;20043;-86
2022/01/10 17:23:39;;;;;;;29.83;13.05;;;;;;;;;;5185424;23;20104;-86
2022/01/10 17:26:32;;;;;;;;;;;;;;;;;;;;;
2022/01/10 17:44:22;;;;;;;34.38;12.73;;;;;;;;;;5096603;23;20047;-93
2022/01/10 17:49:28;;;;;;;30.60;13.23;;;;;;;;;;5740324;23;20036;-95
2022/01/10 17:52:14;;;;;;;34.38;12.45;;;;;;;;;;5060826;23;20104;-93
2022/01/10 17:54:48;;;;;;;30.55;12.65;;;;;;;;;;5465120;23;20039;-84
2022/01/10 17:59:49;;;;;;;38.72;13.35;;;;;;;;;;5104695;23;20067;-84
2022/01/10 18:02:15;;;;;;;31.02;12.43;;;;;;;;;;4942937;29;20104;-87
2022/01/10 18:04:43;;;;;;;40.78;15.35;;;;;;;;;;4956495;29;20019;-85
2022/01/10 18:07:08;;;;;;;37.97;13.98;;;;;;;;;;4941584;29;20016;-86
2022/01/10 18:09:36;;;;;;;36.42;14.57;;;;;;;;;;4942230;29;20036;-86
2022/01/10 18:12:02;;;;;;;30.40;13.13;;;;;;;;;;4960768;28;20016;-87
2022/01/10 18:14:34;;;;;;;33.05;12.85;;;;;;;;;;4943175;29;20092;-85